Time;durP1;ratioP1;P1;durP2;ratioP2;P2;SDS_P1;SDS_P2;PMS_P1;PMS_P2;Temp;Humidity;BMP_temperature;BMP_pressure;BME280_temperature;BME280_humidity;BME280_pressure;Samples;Min_cycle;Max_cycle;Signal;HPM_P1;HPM_P2
2022/05/25 00:01:33;;;;;;;10.10;7.10;;;512.30;2380.80;;;;;;5014779;28;20034;-79
2022/05/25 00:04:01;;;;;;;12.05;7.55;;;512.30;2380.80;;;;;;5015689;28;20028;-81
2022/05/25 00:06:27;;;;;;;13.65;8.52;;;512.20;2380.80;;;;;;5014781;28;20030;-77
2022/05/25 00:08:53;;;;;;;11.60;7.90;;;512.10;2380.80;;;;;;5015027;28;20089;-74
2022/05/25 00:11:19;;;;;;;15.73;7.85;;;512.00;2380.80;;;;;;5014936;28;20109;-79
2022/05/25 00:13:45;;;;;;;13.90;8.07;;;512.00;2380.80;;;;;;5014951;28;20093;-79
2022/05/25 00:16:11;;;;;;;9.73;7.20;;;512.00;2380.80;;;;;;5014650;28;20034;-73
2022/05/25 00:18:37;;;;;;;11.27;8.75;;;487.30;2380.80;;;;;;5014883;28;20088;-75
2022/05/25 00:21:03;;;;;;;12.60;8.15;;;487.10;2380.80;;;;;;5014538;28;20022;-76
2022/05/25 00:23:28;;;;;;;11.13;8.43;;;487.10;2380.80;;;;;;5014436;28;20132;-74
2022/05/25 00:25:55;;;;;;;10.82;8.25;;;487.00;2380.80;;;;;;5014677;28;20437;-76
2022/05/25 00:28:20;;;;;;;14.77;7.93;;;486.80;2380.80;;;;;;5014389;28;20471;-74
2022/05/25 00:30:46;;;;;;;10.45;8.43;;;486.50;2380.80;;;;;;5014555;28;20040;-72
2022/05/25 00:33:13;;;;;;;17.77;9.18;;;461.70;2380.80;;;;;;5014299;28;20037;-74
2022/05/25 00:35:39;;;;;;;14.35;8.25;;;461.70;2380.80;;;;;;5014604;28;20026;-76
2022/05/25 00:38:08;;;;;;;16.23;9.18;;;461.70;2380.80;;;;;;5014250;28;20466;-73
2022/05/25 00:40:38;;;;;;;12.75;8.50;;;461.70;2380.80;;;;;;5014412;28;20546;-77
2022/05/25 00:43:04;;;;;;;11.27;8.35;;;486.40;2380.80;;;;;;5014504;28;20104;-79
2022/05/25 00:45:40;;;;;;;13.40;8.85;;;486.50;2380.80;;;;;;5014068;28;20036;-74
2022/05/25 00:48:09;;;;;;;15.23;8.70;;;486.60;2380.80;;;;;;5012854;28;20045;-74
2022/05/25 00:53:21;;;;;;;13.02;8.70;;;486.80;2380.80;;;;;;5011883;28;20497;-74
2022/05/25 00:55:48;;;;;;;12.00;8.27;;;486.90;2380.80;;;;;;5014371;28;20088;-74
2022/05/25 00:58:14;;;;;;;12.82;8.90;;;487.00;2380.80;;;;;;5013917;28;20072;-77
2022/05/25 01:00:40;;;;;;;13.73;8.65;;;487.00;2380.80;;;;;;5013738;28;20054;-75
2022/05/25 01:03:10;;;;;;;13.63;7.65;;;487.00;2380.80;;;;;;5013775;28;20143;-78
2022/05/25 01:05:57;;;;;;;11.95;8.38;;;487.00;2380.80;;;;;;5013972;28;20030;-75
2022/05/25 01:08:41;;;;;;;12.02;9.25;;;487.00;2380.80;;;;;;5010647;28;20022;-78
2022/05/25 01:11:31;;;;;;;14.98;9.43;;;487.00;2380.80;;;;;;5012163;28;20033;-73
2022/05/25 01:14:17;;;;;;;16.80;8.55;;;487.00;2380.80;;;;;;5013231;28;20101;-73
2022/05/25 01:17:00;;;;;;;;;;;487.00;2380.80;;;;;;5012406;28;20060;-74
2022/05/25 01:19:44;;;;;;;10.48;8.45;;;486.80;2380.80;;;;;;5012066;28;20004;-79
2022/05/25 01:22:42;;;;;;;12.13;7.93;;;486.70;2380.80;;;;;;5011897;28;20038;-78
2022/05/25 01:25:29;;;;;;;20.85;8.77;;;486.80;2380.80;;;;;;5000982;28;20030;-78
2022/05/25 01:27:57;;;;;;;13.82;8.20;;;486.80;2380.80;;;;;;5012737;28;20508;-76
2022/05/25 01:30:33;;;;;;;15.02;8.63;;;486.90;2380.80;;;;;;5013326;28;20033;-76
2022/05/25 01:33:22;;;;;;;14.93;8.95;;;486.80;2380.80;;;;;;5013256;28;20060;-81
2022/05/25 01:35:56;;;;;;;13.38;8.43;;;486.60;2380.80;;;;;;5011692;28;20421;-78
2022/05/25 01:38:44;;;;;;;19.17;9.20;;;461.70;2380.80;;;;;;5011167;28;20022;-78
2022/05/25 01:41:30;;;;;;;16.05;8.40;;;461.50;2380.80;;;;;;5011703;28;20026;-78
2022/05/25 01:44:01;;;;;;;12.65;8.30;;;461.40;2380.80;;;;;;5012903;28;20069;-78
2022/05/25 01:46:46;;;;;;;11.52;8.15;;;461.30;2380.80;;;;;;5013098;28;20109;-76
2022/05/25 01:49:19;;;;;;;12.83;8.13;;;461.30;2380.80;;;;;;4994495;28;20489;-78
2022/05/25 01:51:55;;;;;;;17.75;8.38;;;461.40;2380.80;;;;;;5010852;28;20022;-80
2022/05/25 01:54:28;;;;;;;13.02;8.02;;;461.40;2380.80;;;;;;5010592;28;20033;-74
2022/05/25 01:56:57;;;;;;;14.18;7.72;;;461.50;2380.80;;;;;;5013007;28;20018;-78
2022/05/25 01:59:22;;;;;;;15.73;8.27;;;461.60;2380.80;;;;;;5010471;28;20039;-78
2022/05/25 02:04:44;;;;;;;8.65;6.88;;;461.70;2380.80;;;;;;5012620;28;20037;-75
2022/05/25 02:07:31;;;;;;;20.83;8.02;;;486.40;2380.80;;;;;;4995367;28;20470;-78
2022/05/25 02:10:11;;;;;;;11.43;6.65;;;461.70;2380.80;;;;;;5012305;28;20034;-74
2022/05/25 02:13:27;;;;;;;10.18;6.93;;;461.70;2380.80;;;;;;5012504;28;20029;-76
2022/05/25 02:16:24;;;;;;;9.48;6.05;;;461.70;2380.80;;;;;;4940884;29;20108;-74
2022/05/25 02:18:56;;;;;;;10.80;5.45;;;486.40;2380.80;;;;;;4940596;28;20071;-78
2022/05/25 02:21:49;;;;;;;8.85;5.95;;;486.40;2380.80;;;;;;4938347;29;20043;-75
2022/05/25 02:24:33;;;;;;;14.00;5.63;;;486.40;2380.80;;;;;;4940766;29;20095;-80
2022/05/25 02:27:07;;;;;;;11.60;4.97;;;486.50;2380.80;;;;;;4941075;29;20436;-76
2022/05/25 02:29:44;;;;;;;10.02;5.70;;;486.50;2380.80;;;;;;4941779;29;20038;-77
2022/05/25 02:32:18;;;;;;;11.95;5.45;;;486.70;2380.80;;;;;;4940809;29;20030;-75
2022/05/25 02:34:48;;;;;;;10.45;5.45;;;486.70;2380.80;;;;;;4940560;29;20555;-79
2022/05/25 02:37:16;;;;;;;12.50;5.45;;;486.70;2380.80;;;;;;4942640;29;20035;-73
2022/05/25 02:39:42;;;;;;;9.77;5.13;;;486.70;2380.80;;;;;;4941272;29;20023;-75
2022/05/25 02:42:14;;;;;;;8.95;4.95;;;486.70;2380.80;;;;;;4926420;29;20118;-73
2022/05/25 02:44:40;;;;;;;9.57;5.25;;;486.80;2380.80;;;;;;4943161;29;20038;-74
2022/05/25 02:47:06;;;;;;;6.65;4.93;;;486.80;2380.80;;;;;;4941429;29;20042;-74
2022/05/25 02:49:32;;;;;;;10.07;5.50;;;486.80;2380.80;;;;;;4942192;29;20027;-77
2022/05/25 02:51:58;;;;;;;6.32;4.90;;;486.90;2380.80;;;;;;5000696;28;20048;-78
2022/05/25 02:54:23;;;;;;;9.60;5.90;;;486.90;2380.80;;;;;;5012129;28;20450;-79
2022/05/25 02:56:49;;;;;;;9.73;6.03;;;486.90;2380.80;;;;;;5011965;28;20025;-74
2022/05/25 02:59:16;;;;;;;12.45;6.18;;;486.90;2380.80;;;;;;5012060;28;20104;-79
2022/05/25 03:01:42;;;;;;;11.68;6.00;;;486.90;2380.80;;;;;;5011890;28;20029;-78
2022/05/25 03:04:08;;;;;;;9.98;6.32;;;486.90;2380.80;;;;;;5011889;28;20022;-79
2022/05/25 03:06:34;;;;;;;17.75;6.00;;;487.00;2380.80;;;;;;5012547;28;20061;-75
2022/05/25 03:09:00;;;;;;;10.32;5.43;;;486.90;2380.80;;;;;;5012489;28;20045;-75
2022/05/25 03:11:25;;;;;;;9.95;5.32;;;486.90;2380.80;;;;;;5012691;28;20037;-74
2022/05/25 03:13:51;;;;;;;12.80;6.13;;;487.00;2380.80;;;;;;5012408;28;20018;-79
2022/05/25 03:16:19;;;;;;;7.65;5.13;;;487.00;2380.80;;;;;;5012428;28;20116;-77
2022/05/25 03:18:46;;;;;;;7.05;4.93;;;487.00;2380.80;;;;;;5012325;28;20464;-78
2022/05/25 03:21:12;;;;;;;7.22;4.53;;;487.00;2380.80;;;;;;5012268;28;20045;-80
2022/05/25 03:23:38;;;;;;;7.15;4.93;;;487.00;2380.80;;;;;;5012207;28;20490;-79
2022/05/25 03:26:04;;;;;;;11.13;5.03;;;487.00;2380.80;;;;;;5012279;28;20037;-79
2022/05/25 03:28:30;;;;;;;15.90;5.20;;;487.00;2380.80;;;;;;5012039;28;20033;-75
2022/05/25 03:30:56;;;;;;;9.20;5.28;;;487.00;2380.80;;;;;;5012375;28;20022;-76
2022/05/25 03:33:21;;;;;;;12.73;5.05;;;487.00;2380.80;;;;;;5016299;28;20056;-80
2022/05/25 03:35:47;;;;;;;11.38;4.45;;;487.10;2380.80;;;;;;5016064;28;20041;-76
2022/05/25 03:38:13;;;;;;;7.97;4.70;;;487.00;2380.80;;;;;;5016329;28;20072;-77
2022/05/25 03:40:39;;;;;;;9.95;5.10;;;487.10;2380.80;;;;;;5015864;28;20505;-79
2022/05/25 03:43:07;;;;;;;7.70;5.00;;;487.10;2380.80;;;;;;5016189;28;20037;-74
2022/05/25 03:45:34;;;;;;;9.07;4.78;;;487.10;2380.80;;;;;;5015844;28;20068;-80
2022/05/25 03:48:00;;;;;;;12.38;5.43;;;487.10;2380.80;;;;;;5016101;28;20025;-73
2022/05/25 03:50:26;;;;;;;12.27;5.72;;;487.10;2380.80;;;;;;5015688;28;20018;-76
2022/05/25 03:52:52;;;;;;;6.85;4.53;;;487.10;2380.80;;;;;;5015515;28;20057;-77
2022/05/25 03:55:18;;;;;;;7.20;4.82;;;487.10;2380.80;;;;;;5015070;28;20049;-74
2022/05/25 03:57:44;;;;;;;11.60;5.47;;;487.10;2380.80;;;;;;5014918;28;20474;-75
2022/05/25 04:00:11;;;;;;;9.50;4.38;;;487.10;2380.80;;;;;;5015198;28;20080;-74
2022/05/25 04:02:37;;;;;;;6.13;4.50;;;487.10;2380.80;;;;;;5014725;28;20022;-75
2022/05/25 04:05:08;;;;;;;9.13;4.97;;;487.10;2380.80;;;;;;5015773;28;20084;-74
2022/05/25 04:07:38;;;;;;;11.80;5.30;;;487.10;2380.80;;;;;;5015307;28;20077;-73
2022/05/25 04:10:05;;;;;;;8.63;5.03;;;487.10;2380.80;;;;;;5015434;28;20026;-73
2022/05/25 04:12:32;;;;;;;8.73;5.88;;;487.20;2380.80;;;;;;5015479;28;20073;-78
2022/05/25 04:14:58;;;;;;;7.75;4.70;;;487.20;2380.80;;;;;;5014845;28;20033;-74
2022/05/25 04:17:24;;;;;;;6.65;4.78;;;487.30;2380.80;;;;;;5015452;28;20477;-76
2022/05/25 04:19:50;;;;;;;12.88;4.75;;;487.30;2380.80;;;;;;5015066;28;20026;-77
2022/05/25 04:22:17;;;;;;;15.52;4.50;;;487.30;2380.80;;;;;;5014975;28;20129;-74
2022/05/25 04:24:44;;;;;;;19.88;5.05;;;487.30;2380.80;;;;;;5014911;28;20046;-75
2022/05/25 04:27:09;;;;;;;10.18;5.15;;;487.20;2380.80;;;;;;5014775;28;20381;-76
2022/05/25 04:29:38;;;;;;;8.35;5.05;;;487.20;2380.80;;;;;;5014407;28;20022;-77
2022/05/25 04:32:06;;;;;;;8.88;4.95;;;487.30;2380.80;;;;;;5014403;28;20121;-76
2022/05/25 04:34:32;;;;;;;7.78;4.18;;;512.10;2380.80;;;;;;5014190;28;20064;-75
2022/05/25 04:37:48;;;;;;;10.18;6.03;;;512.20;2380.80;;;;;;4996891;28;20026;-76
2022/05/25 04:39:44;;;;;;;7.63;5.50;;;512.20;2380.80;;;;;;5014038;28;20061;-77
2022/05/25 04:42:10;;;;;;;6.95;5.30;;;512.20;2380.80;;;;;;5014257;28;20323;-77
2022/05/25 04:44:38;;;;;;;16.30;5.63;;;512.40;2380.80;;;;;;5014301;28;20037;-77
2022/05/25 04:47:07;;;;;;;11.48;5.55;;;512.50;2380.80;;;;;;4995863;28;20113;-74
2022/05/25 04:49:34;;;;;;;12.80;5.18;;;512.60;2380.80;;;;;;5013871;28;20101;-75
2022/05/25 04:52:00;;;;;;;11.98;4.95;;;512.90;2380.80;;;;;;4996476;28;20022;-76
2022/05/25 04:54:25;;;;;;;10.80;4.68;;;537.60;2406.40;;;;;;5014083;28;20014;-78
2022/05/25 04:59:35;;;;;;;10.43;4.57;;;537.70;2406.40;;;;;;5014406;28;20029;-78
2022/05/25 05:02:01;;;;;;;8.25;4.60;;;537.80;2406.40;;;;;;4996858;28;20038;-78
2022/05/25 05:04:27;;;;;;;14.93;5.03;;;537.90;2406.40;;;;;;4996856;28;20037;-76
2022/05/25 05:06:53;;;;;;;16.55;5.70;;;538.00;2406.40;;;;;;5014372;28;20022;-78
2022/05/25 05:09:19;;;;;;;7.18;4.70;;;538.00;2406.40;;;;;;5014464;28;20029;-79
2022/05/25 05:11:45;;;;;;;7.32;4.68;;;538.00;2406.40;;;;;;5014303;28;20486;-78
2022/05/25 05:14:14;;;;;;;6.25;4.20;;;538.00;2406.40;;;;;;5014464;28;20057;-79
2022/05/25 05:16:39;;;;;;;10.80;5.20;;;538.10;2406.40;;;;;;4996473;28;20589;-78
2022/05/25 05:19:05;;;;;;;9.38;5.03;;;538.20;2406.40;;;;;;5014052;28;20026;-76
2022/05/25 05:21:31;;;;;;;9.13;4.75;;;538.20;2406.40;;;;;;4995278;28;20042;-76
2022/05/25 05:23:57;;;;;;;5.35;4.32;;;538.30;2406.40;;;;;;5013618;28;20041;-78
2022/05/25 05:26:23;;;;;;;6.65;4.70;;;538.30;2406.40;;;;;;5013504;28;20390;-75
2022/05/25 05:28:53;;;;;;;25.08;5.47;;;538.40;2406.40;;;;;;5013944;28;20068;-75
2022/05/25 05:31:19;;;;;;;24.02;5.28;;;538.50;2406.40;;;;;;5013778;28;20022;-74
2022/05/25 05:33:44;;;;;;;39.00;5.38;;;563.20;2432.00;;;;;;5013704;28;20037;-75
2022/05/25 05:36:19;;;;;;;13.82;5.45;;;563.20;2432.00;;;;;;5013827;28;20033;-77
2022/05/25 05:38:55;;;;;;;11.70;4.68;;;563.40;2432.00;;;;;;5013771;28;20018;-78
2022/05/25 05:41:25;;;;;;;14.60;5.60;;;563.30;2432.00;;;;;;4996225;28;20030;-78
2022/05/25 05:43:52;;;;;;;10.02;4.88;;;563.30;2432.00;;;;;;4996028;28;20088;-77
2022/05/25 05:46:18;;;;;;;8.85;4.63;;;563.30;2432.00;;;;;;4995782;28;20386;-79
2022/05/25 05:48:45;;;;;;;9.88;4.40;;;563.50;2432.00;;;;;;5013605;28;20025;-77
2022/05/25 05:51:11;;;;;;;10.32;4.93;;;563.50;2432.00;;;;;;4995849;28;20034;-80
2022/05/25 05:53:37;;;;;;;14.80;5.10;;;563.60;2432.00;;;;;;5013219;28;20117;-78
2022/05/25 05:56:04;;;;;;;9.05;5.50;;;563.70;2432.00;;;;;;5013045;28;20108;-78
2022/05/25 05:58:30;;;;;;;9.63;5.40;;;563.70;2432.00;;;;;;4995997;28;20117;-78
2022/05/25 06:00:55;;;;;;;8.55;4.78;;;563.80;2432.00;;;;;;5013347;28;20109;-78
2022/05/25 06:03:21;;;;;;;8.88;4.45;;;563.70;2432.00;;;;;;5013307;28;20060;-78
2022/05/25 06:05:47;;;;;;;11.85;5.28;;;563.80;2432.00;;;;;;4995484;28;20026;-76
2022/05/25 06:08:16;;;;;;;12.15;4.43;;;563.90;2432.00;;;;;;5013264;28;20045;-76
2022/05/25 06:10:42;;;;;;;8.20;4.47;;;563.90;2432.00;;;;;;4995642;28;20022;-76
2022/05/25 06:13:08;;;;;;;8.77;5.20;;;563.90;2432.00;;;;;;4995392;28;20052;-76
2022/05/25 06:21:11;;;;;;;10.77;4.82;;;564.10;2432.00;;;;;;4989558;28;20084;-77
2022/05/25 06:23:38;;;;;;;16.75;5.05;;;588.90;2432.00;;;;;;4995492;28;20465;-78
2022/05/25 06:26:04;;;;;;;14.50;4.88;;;589.00;2432.00;;;;;;5012879;28;20045;-78
2022/05/25 06:28:29;;;;;;;13.93;5.75;;;589.00;2432.00;;;;;;4995512;28;20033;-77
2022/05/25 06:30:55;;;;;;;7.88;5.00;;;589.10;2432.00;;;;;;5012717;28;20022;-79
2022/05/25 06:33:21;;;;;;;10.23;4.60;;;589.10;2432.00;;;;;;4995289;28;20036;-80
2022/05/25 06:35:47;;;;;;;6.65;4.43;;;589.30;2432.00;;;;;;4995595;28;20438;-80
2022/05/25 06:38:12;;;;;;;13.63;5.28;;;589.40;2432.00;;;;;;5012958;28;20025;-79
2022/05/25 06:40:38;;;;;;;10.30;5.07;;;589.50;2432.00;;;;;;4995087;28;20044;-80
2022/05/25 06:43:04;;;;;;;11.30;5.13;;;589.60;2432.00;;;;;;5012752;28;20021;-79
2022/05/25 06:45:30;;;;;;;10.05;4.75;;;589.60;2432.00;;;;;;4995160;28;20029;-78
2022/05/25 06:47:56;;;;;;;9.35;4.53;;;589.70;2432.00;;;;;;5011841;28;20088;-79
2022/05/25 06:50:22;;;;;;;9.95;4.85;;;614.50;2432.00;;;;;;4994419;28;20360;-78
2022/05/25 06:52:47;;;;;;;12.95;4.85;;;614.40;2432.00;;;;;;5011913;28;20041;-78
2022/05/25 06:55:13;;;;;;;8.13;4.40;;;614.50;2432.00;;;;;;4994678;28;20030;-80
2022/05/25 06:57:40;;;;;;;9.50;4.78;;;614.60;2432.00;;;;;;4994321;28;20080;-79
2022/05/25 07:00:06;;;;;;;16.55;5.43;;;614.70;2432.00;;;;;;4994908;28;20022;-80
2022/05/25 07:02:33;;;;;;;10.88;5.15;;;614.70;2355.20;;;;;;4995138;28;20518;-80
2022/05/25 07:04:58;;;;;;;10.68;5.15;;;614.80;2432.00;;;;;;4994958;28;20451;-80
2022/05/25 07:07:24;;;;;;;13.50;5.05;;;614.90;2432.00;;;;;;4999239;28;20037;-80
2022/05/25 07:09:50;;;;;;;9.40;5.15;;;615.10;2380.80;;;;;;4998990;28;20057;-81
2022/05/25 07:12:17;;;;;;;10.77;4.95;;;615.20;2380.80;;;;;;5016737;28;20026;-80
2022/05/25 07:14:43;;;;;;;8.65;4.85;;;615.20;2380.80;;;;;;4999169;28;20049;-79
2022/05/25 07:17:08;;;;;;;9.30;4.90;;;615.30;2304.00;;;;;;5016543;28;20470;-79
2022/05/25 07:19:35;;;;;;;7.60;4.70;;;640.00;2355.20;;;;;;4999208;28;20033;-83
2022/05/25 07:22:01;;;;;;;10.65;5.65;;;640.00;2252.80;;;;;;4999366;28;20037;-80
2022/05/25 07:24:26;;;;;;;16.85;5.15;;;640.10;2252.80;;;;;;5016640;28;20034;-80
2022/05/25 07:26:52;;;;;;;9.35;4.68;;;640.40;2329.60;;;;;;5016801;28;20030;-84
2022/05/25 07:29:18;;;;;;;8.20;4.55;;;640.40;2278.40;;;;;;4998579;28;20042;-80
2022/05/25 07:31:50;;;;;;;8.95;5.05;;;640.50;2304.00;;;;;;4998459;28;20022;-78
2022/05/25 07:34:33;;;;;;;9.52;5.05;;;640.60;2278.40;;;;;;4997719;28;20045;-81
2022/05/25 07:37:10;;;;;;;10.77;4.57;;;640.70;2304.00;;;;;;4995559;28;20101;-81
2022/05/25 07:39:42;;;;;;;10.27;4.50;;;640.70;2278.40;;;;;;5012824;28;20084;-76
2022/05/25 07:42:11;;;;;;;9.07;5.47;;;640.90;2124.80;;;;;;4995543;28;20089;-76
2022/05/25 07:44:43;;;;;;;10.13;4.88;;;640.90;2150.40;;;;;;5015565;28;20052;-76
2022/05/25 07:47:09;;;;;;;12.32;4.53;;;665.60;2201.60;;;;;;5015984;28;20022;-78
2022/05/25 07:49:35;;;;;;;13.60;5.00;;;665.60;2099.20;;;;;;4998073;28;20113;-77
2022/05/25 07:52:02;;;;;;;10.13;4.72;;;665.70;2201.60;;;;;;4998261;28;20030;-77
2022/05/25 07:54:29;;;;;;;13.45;5.03;;;665.80;2150.40;;;;;;4997921;28;20057;-79
2022/05/25 07:56:55;;;;;;;13.75;4.72;;;666.00;2124.80;;;;;;4997400;28;20062;-79
2022/05/25 07:59:21;;;;;;;20.17;5.45;;;666.30;2201.60;;;;;;4998324;28;20026;-79
2022/05/25 08:07:26;;;;;;;9.00;5.10;;;691.30;1996.80;;;;;;5011352;28;20566;-79
2022/05/25 08:09:58;;;;;;;14.50;5.55;;;691.90;1971.20;;;;;;5014819;28;20018;-81
2022/05/25 08:12:24;;;;;;;8.23;4.93;;;691.30;1945.60;;;;;;4998424;28;20084;-83
2022/05/25 08:14:50;;;;;;;10.50;4.97;;;691.30;1945.60;;;;;;4998039;28;20058;-81
2022/05/25 08:17:15;;;;;;;11.18;5.47;;;691.50;2022.40;;;;;;4997234;28;20049;-80
2022/05/25 08:19:41;;;;;;;16.00;5.00;;;691.40;1945.60;;;;;;4997459;28;20120;-84
2022/05/25 08:22:07;;;;;;;11.57;5.85;;;691.60;1920.00;;;;;;4997727;28;20092;-87
2022/05/25 08:24:33;;;;;;;12.75;5.03;;;691.60;1868.80;;;;;;4997643;28;20084;-80
2022/05/25 08:26:59;;;;;;;10.98;4.85;;;691.70;1894.40;;;;;;4997191;28;20030;-82
2022/05/25 08:29:25;;;;;;;13.93;5.55;;;691.90;1920.00;;;;;;5015238;28;20056;-82
2022/05/25 08:31:55;;;;;;;12.90;5.35;;;692.00;1920.00;;;;;;4997248;28;20021;-79
2022/05/25 08:34:26;;;;;;;14.25;6.00;;;692.00;1817.60;;;;;;5015173;28;20033;-81
2022/05/25 08:36:52;;;;;;;10.10;5.20;;;692.10;1817.60;;;;;;4997611;28;20022;-80
2022/05/25 08:39:18;;;;;;;13.95;5.88;;;716.80;1868.80;;;;;;5015220;28;20026;-82
2022/05/25 08:41:47;;;;;;;9.30;5.50;;;716.80;1843.20;;;;;;4996785;28;20040;-83
2022/05/25 08:44:14;;;;;;;9.25;5.78;;;692.10;1868.80;;;;;;4996735;28;20109;-88
2022/05/25 08:46:40;;;;;;;15.73;6.05;;;716.90;1868.80;;;;;;4997347;28;20108;-79
2022/05/25 08:49:15;;;;;;;13.10;6.93;;;716.90;1843.20;;;;;;4997056;28;20448;-78
2022/05/25 08:51:56;;;;;;;9.50;5.50;;;716.90;1843.20;;;;;;4996926;28;20041;-79
2022/05/25 08:54:24;;;;;;;10.48;5.63;;;716.90;1843.20;;;;;;4996985;28;20032;-78
2022/05/25 08:57:02;;;;;;;12.07;6.93;;;716.90;1843.20;;;;;;4996991;28;20038;-77
2022/05/25 08:59:28;;;;;;;13.32;6.65;;;;;;;;;;4996881;28;20314;-81
2022/05/25 09:01:58;;;;;;;14.20;6.40;;;717.10;1894.40;;;;;;5014233;28;20038;-77
2022/05/25 09:04:46;;;;;;;16.88;6.03;;;717.20;1843.20;;;;;;5014217;28;20105;-78
2022/05/25 09:07:47;;;;;;;9.55;5.57;;;717.20;1817.60;;;;;;4996799;28;20049;-79
2022/05/25 09:10:15;;;;;;;14.45;6.47;;;717.30;1843.20;;;;;;4996883;28;20029;-78
2022/05/25 09:12:49;;;;;;;11.40;6.57;;;717.40;1843.20;;;;;;4995701;28;20048;-76
2022/05/25 09:15:22;;;;;;;13.68;6.93;;;717.50;1894.40;;;;;;5014211;28;20057;-76
2022/05/25 09:18:09;;;;;;;18.02;6.70;;;717.70;1843.20;;;;;;4996236;28;20605;-77
2022/05/25 09:20:42;;;;;;;11.48;6.47;;;742.50;1894.40;;;;;;5014017;28;20547;-76
2022/05/25 09:23:09;;;;;;;13.77;6.32;;;742.50;1894.40;;;;;;5013817;28;20628;-78
2022/05/25 09:25:36;;;;;;;15.25;6.28;;;742.50;1843.20;;;;;;4995888;28;20128;-78
2022/05/25 09:28:16;;;;;;;13.45;5.82;;;742.60;1817.60;;;;;;4996525;28;20063;-76
2022/05/25 09:30:44;;;;;;;14.57;5.93;;;742.80;1817.60;;;;;;5013470;28;20060;-78
2022/05/25 09:33:19;;;;;;;14.10;6.20;;;742.90;1817.60;;;;;;5013781;28;20471;-78
2022/05/25 09:35:54;;;;;;;15.15;6.22;;;743.00;1817.60;;;;;;5012995;28;20026;-77
2022/05/25 09:38:32;;;;;;;;;;;743.00;1766.40;;;;;;4991982;28;20109;-78
2022/05/25 09:41:05;;;;;;;12.55;6.13;;;743.30;1766.40;;;;;;5011478;28;19991;-77
2022/05/25 09:43:32;;;;;;;11.27;6.15;;;768.00;1766.40;;;;;;5013658;28;20033;-76
2022/05/25 09:46:04;;;;;;;14.20;6.28;;;768.10;1715.20;;;;;;5012924;28;20711;-78
2022/05/25 09:48:32;;;;;;;18.70;6.78;;;768.10;1715.20;;;;;;5013061;28;20021;-78
2022/05/25 09:51:22;;;;;;;12.07;6.25;;;768.40;1740.80;;;;;;5006730;28;20030;-79
2022/05/25 09:54:03;;;;;;;12.18;6.38;;;768.50;1740.80;;;;;;5011189;28;20026;-78
2022/05/25 09:56:36;;;;;;;7.38;6.45;;;768.60;1664.00;;;;;;5011536;28;20049;-81
2022/05/25 09:59:06;;;;;;;23.00;7.10;;;768.70;1664.00;;;;;;5013458;28;20029;-81
2022/05/25 10:01:48;;;;;;;9.80;6.40;;;768.90;1638.40;;;;;;4995802;28;20042;-80
2022/05/25 10:04:35;;;;;;;13.85;6.80;;;768.90;1638.40;;;;;;4995768;28;20441;-79
2022/05/25 10:07:12;;;;;;;11.70;6.93;;;793.60;1664.00;;;;;;5010229;28;20105;-80
2022/05/25 10:09:47;;;;;;;14.00;6.78;;;793.70;1612.80;;;;;;5012854;28;20029;-81
2022/05/25 10:12:33;;;;;;;10.77;6.55;;;793.80;1638.40;;;;;;4994513;28;20092;-82
2022/05/25 10:15:25;;;;;;;16.70;6.63;;;794.00;1664.00;;;;;;4994075;28;20044;-82
2022/05/25 10:17:51;;;;;;;15.68;7.25;;;794.30;1664.00;;;;;;4942746;29;20110;-79
2022/05/25 10:20:41;;;;;;;11.50;6.05;;;794.50;1587.20;;;;;;4941011;29;20110;-80
2022/05/25 10:23:12;;;;;;;11.48;8.00;;;794.50;1561.60;;;;;;4940838;29;20043;-79
2022/05/25 10:25:45;;;;;;;12.70;6.40;;;819.20;1561.60;;;;;;4927262;29;20042;-79
2022/05/25 10:28:26;;;;;;;11.88;6.43;;;819.30;1510.40;;;;;;4940864;29;20113;-80
2022/05/25 10:37:07;;;;;;;11.93;6.18;;;819.50;1484.80;;;;;;4895554;29;20504;-77
2022/05/25 10:39:37;;;;;;;11.20;6.35;;;819.60;1484.80;;;;;;4898595;29;20044;-78
2022/05/25 10:42:15;;;;;;;16.00;6.85;;;819.70;1459.20;;;;;;4905992;29;20048;-83
2022/05/25 10:44:53;;;;;;;12.20;6.32;;;819.80;1459.20;;;;;;4902334;29;20033;-81
2022/05/25 10:47:52;;;;;;;14.02;6.90;;;819.60;1433.60;;;;;;4904279;29;20091;-78
2022/05/25 10:50:26;;;;;;;12.00;6.57;;;820.00;1484.80;;;;;;4911243;29;20140;-79
2022/05/25 10:53:02;;;;;;;11.68;5.90;;;820.10;1459.20;;;;;;4914041;29;20044;-81
2022/05/25 10:55:32;;;;;;;;;;;820.00;1408.00;;;;;;4946298;29;20043;-80
2022/05/25 10:58:18;;;;;;;12.00;6.05;;;844.80;1433.60;;;;;;4952500;29;19918;-84
2022/05/25 11:01:00;;;;;;;15.60;6.18;;;844.80;1408.00;;;;;;4936145;29;20392;-78
2022/05/25 11:03:46;;;;;;;18.50;6.65;;;820.10;1408.00;;;;;;4936005;29;20126;-79
2022/05/25 11:06:44;;;;;;;11.27;5.47;;;844.80;1433.60;;;;;;4935915;29;20035;-79
2022/05/25 11:09:33;;;;;;;13.80;5.82;;;845.00;1408.00;;;;;;4935817;29;20067;-80
2022/05/25 11:12:11;;;;;;;14.68;5.60;;;844.90;1356.80;;;;;;4948924;28;20031;-80
2022/05/25 11:15:05;;;;;;;10.05;5.55;;;845.20;1305.60;;;;;;4991889;28;20483;-80
2022/05/25 11:17:46;;;;;;;11.75;5.47;;;845.40;1305.60;;;;;;4991475;28;20022;-80
2022/05/25 11:20:18;;;;;;;12.52;5.53;;;845.40;1331.20;;;;;;4975161;28;20045;-83
2022/05/25 11:23:15;;;;;;;9.88;5.35;;;845.40;1254.40;;;;;;4984303;28;20062;-80
2022/05/25 11:25:40;;;;;;;11.40;5.50;;;845.40;1280.00;;;;;;4956469;28;20041;-80
2022/05/25 11:28:15;;;;;;;12.73;6.13;;;845.40;1280.00;;;;;;4955973;28;20019;-80
2022/05/25 11:31:19;;;;;;;12.10;5.68;;;845.40;1254.40;;;;;;4973613;28;20023;-80
2022/05/25 11:34:11;;;;;;;12.10;5.90;;;845.60;1280.00;;;;;;4933225;29;20039;-80
2022/05/25 11:36:52;;;;;;;9.02;5.30;;;845.70;1254.40;;;;;;4895235;29;20056;-79
2022/05/25 11:39:49;;;;;;;17.92;5.97;;;845.70;1280.00;;;;;;4894737;29;20512;-80
2022/05/25 11:42:20;;;;;;;14.10;5.78;;;870.50;1280.00;;;;;;4894469;29;20489;-80
2022/05/25 11:45:04;;;;;;;18.58;5.57;;;870.50;1228.80;;;;;;4894881;29;20132;-79
2022/05/25 11:48:11;;;;;;;10.00;5.88;;;845.70;1254.40;;;;;;4894550;29;20529;-79
2022/05/25 11:50:49;;;;;;;14.27;5.32;;;870.50;1254.40;;;;;;4894553;29;20096;-79
2022/05/25 11:53:29;;;;;;;9.95;5.38;;;870.50;1254.40;;;;;;4896622;29;20064;-78
2022/05/25 11:56:23;;;;;;;12.30;5.50;;;870.50;1254.40;;;;;;4898253;29;20040;-80
2022/05/25 11:59:21;;;;;;;12.00;6.28;;;870.50;1254.40;;;;;;4898174;29;20085;-79
2022/05/25 12:02:08;;;;;;;14.93;5.85;;;870.50;1254.40;;;;;;4860670;29;20518;-80
2022/05/25 12:04:54;;;;;;;8.88;5.10;;;845.60;1228.80;;;;;;4860724;29;20053;-80
2022/05/25 12:07:35;;;;;;;14.43;5.18;;;870.40;1228.80;;;;;;4860705;29;20447;-80
2022/05/25 12:10:08;;;;;;;12.13;5.10;;;870.40;1203.20;;;;;;4866226;29;20526;-81
2022/05/25 12:12:48;;;;;;;11.95;5.97;;;870.50;1203.20;;;;;;4882076;29;20089;-81
2022/05/25 12:15:35;;;;;;;12.02;5.45;;;870.60;1228.80;;;;;;4900775;29;20485;-80
2022/05/25 12:18:24;;;;;;;19.88;5.65;;;870.60;1203.20;;;;;;4916902;29;20469;-80
2022/05/25 12:20:53;;;;;;;15.32;5.22;;;870.60;1203.20;;;;;;4900768;29;20032;-80
2022/05/25 12:23:24;;;;;;;10.50;5.13;;;870.80;1203.20;;;;;;4916385;29;20383;-83
2022/05/25 12:25:55;;;;;;;13.05;5.60;;;870.80;1203.20;;;;;;4900786;29;20148;-80
2022/05/25 12:28:31;;;;;;;17.83;6.47;;;870.80;1203.20;;;;;;4900701;29;20384;-81
2022/05/25 12:31:01;;;;;;;16.48;6.10;;;870.80;1203.20;;;;;;4900672;29;20039;-80
2022/05/25 12:33:28;;;;;;;11.43;5.75;;;870.90;1228.80;;;;;;4916814;29;20021;-82
2022/05/25 12:35:55;;;;;;;14.60;5.72;;;870.90;1177.60;;;;;;4916437;29;20032;-79
2022/05/25 12:38:23;;;;;;;10.15;5.80;;;871.00;1203.20;;;;;;4922109;28;20035;-77
2022/05/25 12:40:51;;;;;;;11.45;5.38;;;870.90;1177.60;;;;;;4958340;28;20035;-79
2022/05/25 12:43:37;;;;;;;12.38;6.22;;;870.90;1177.60;;;;;;4958656;28;20110;-79
2022/05/25 12:48:59;;;;;;;16.17;5.93;;;871.00;1177.60;;;;;;4975939;28;20038;-78
2022/05/25 12:51:43;;;;;;;15.98;5.80;;;870.80;1177.60;;;;;;4975327;28;20097;-81
2022/05/25 12:54:19;;;;;;;8.63;5.40;;;870.90;1177.60;;;;;;4975787;28;20093;-78
2022/05/25 12:56:47;;;;;;;13.68;6.22;;;870.90;1152.00;;;;;;4975483;28;20030;-77
2022/05/25 12:59:29;;;;;;;12.15;6.07;;;871.10;1152.00;;;;;;4975620;28;20027;-78
2022/05/25 13:02:24;;;;;;;11.82;5.13;;;871.00;1177.60;;;;;;4975476;28;20031;-81
2022/05/25 13:04:59;;;;;;;13.10;5.95;;;871.00;1177.60;;;;;;4974204;28;20458;-78